createdAt,value
2022-12-23T00:03:15.898Z,8.70
2022-12-23T00:06:58.705Z,8.68
2022-12-23T00:10:43.296Z,8.48
2022-12-23T00:14:45.006Z,8.40
2022-12-23T00:18:27.835Z,8.37
2022-12-23T00:22:12.980Z,8.29
2022-12-23T00:25:55.703Z,8.14
2022-12-23T00:29:39.737Z,8.17
2022-12-23T00:33:24.692Z,8.14
2022-12-23T00:37:07.322Z,8.00
2022-12-23T00:41:09.619Z,7.86
2022-12-23T00:45:13.658Z,7.84
2022-12-23T00:49:14.321Z,7.80
2022-12-23T00:52:57.080Z,7.77
2022-12-23T00:56:39.784Z,7.67
2022-12-23T01:00:44.329Z,7.55
2022-12-23T01:04:44.521Z,7.61
2022-12-23T01:08:27.403Z,7.63
2022-12-23T01:12:10.202Z,7.56
2022-12-23T01:15:54.281Z,7.56
2022-12-23T01:19:37.308Z,7.67
2022-12-23T01:23:22.811Z,7.83
2022-12-23T01:27:05.461Z,7.83
2022-12-23T01:30:48.097Z,7.88
2022-12-23T01:34:36.789Z,7.93
2022-12-23T01:38:20.272Z,7.94
2022-12-23T01:42:20.627Z,8.06
2022-12-23T01:46:03.629Z,8.09
2022-12-23T01:49:48.214Z,8.03
2022-12-23T01:53:32.675Z,8.04
2022-12-23T01:57:15.414Z,8.13
2022-12-23T02:01:15.494Z,8.19
2022-12-23T02:04:59.845Z,8.08
2022-12-23T02:08:59.819Z,8.14
2022-12-23T02:12:48.550Z,8.16
2022-12-23T02:16:33.728Z,8.20
2022-12-23T02:20:36.839Z,8.14
2022-12-23T02:24:55.628Z,8.24
2022-12-23T02:28:54.563Z,8.16
2022-12-23T02:32:49.626Z,8.12
2022-12-23T02:36:39.432Z,8.22
2022-12-23T02:40:27.594Z,8.28
2022-12-23T02:44:21.577Z,8.39
2022-12-23T02:48:10.116Z,8.45
2022-12-23T02:51:55.747Z,8.55
2022-12-23T02:55:40.761Z,8.62
2022-12-23T02:59:26.908Z,8.75
2022-12-23T03:03:11.338Z,8.89
2022-12-23T03:06:55.795Z,8.86
2022-12-23T03:10:49.062Z,8.95
2022-12-23T03:14:41.234Z,9.00
2022-12-23T03:18:31.595Z,9.03
2022-12-23T03:22:21.088Z,9.01
2022-12-23T03:26:06.426Z,9.09
2022-12-23T03:29:55.396Z,9.15
2022-12-23T03:33:42.444Z,9.18
2022-12-23T03:37:26.814Z,9.25
2022-12-23T03:41:12.383Z,9.26
2022-12-23T03:45:36.367Z,9.35
2022-12-23T03:49:02.658Z,9.38
2022-12-23T03:52:50.988Z,9.42
2022-12-23T03:56:36.585Z,9.46
2022-12-23T04:00:19.445Z,9.50
2022-12-23T04:04:06.751Z,9.54
2022-12-23T04:07:53.697Z,9.58
2022-12-23T04:11:36.749Z,9.61
2022-12-23T04:15:22.858Z,9.58
2022-12-23T04:19:07.040Z,9.63
2022-12-23T04:22:50.947Z,9.56
2022-12-23T04:26:33.662Z,9.58
2022-12-23T04:30:16.606Z,9.57
2022-12-23T04:33:59.257Z,9.66
2022-12-23T04:37:43.408Z,9.73
2022-12-23T04:41:26.163Z,9.68
2022-12-23T04:45:10.024Z,9.70
2022-12-23T04:48:52.698Z,9.67
2022-12-23T04:52:35.360Z,9.70
2022-12-23T04:56:19.480Z,9.77
2022-12-23T05:00:02.117Z,9.75
2022-12-23T05:03:44.968Z,9.73
2022-12-23T05:07:27.636Z,9.84
2022-12-23T05:11:10.344Z,9.85
2022-12-23T05:14:54.389Z,9.91
2022-12-23T05:18:37.079Z,9.90
2022-12-23T05:22:19.824Z,9.83
2022-12-23T05:26:02.671Z,9.81
2022-12-23T05:29:45.345Z,9.72
2022-12-23T05:33:30.111Z,9.70
2022-12-23T05:37:12.835Z,9.70
2022-12-23T05:40:55.659Z,9.74
2022-12-23T05:44:38.294Z,9.78
2022-12-23T05:48:21.058Z,9.74
2022-12-23T05:52:05.312Z,9.73
2022-12-23T05:55:48.419Z,9.74
2022-12-23T05:59:31.952Z,9.80
2022-12-23T06:03:14.953Z,9.82
2022-12-23T06:06:58.219Z,9.89
2022-12-23T06:10:42.486Z,9.91
2022-12-23T06:14:28.751Z,10.05
2022-12-23T06:18:11.883Z,10.08
2022-12-23T06:21:54.560Z,10.10
2022-12-23T06:25:37.276Z,10.11
2022-12-23T06:29:21.452Z,10.16
2022-12-23T06:33:04.276Z,10.20
2022-12-23T06:36:47.074Z,10.20
2022-12-23T06:40:30.042Z,10.22
2022-12-23T06:44:12.682Z,10.25
2022-12-23T06:47:57.943Z,10.29
2022-12-23T06:51:40.724Z,10.33
2022-12-23T06:55:23.458Z,10.34
2022-12-23T06:59:06.180Z,10.38
2022-12-23T07:02:49.268Z,10.42
2022-12-23T07:06:33.459Z,10.41
2022-12-23T07:10:16.246Z,10.52
2022-12-23T07:13:59.507Z,10.55
2022-12-23T07:17:42.225Z,10.54
2022-12-23T07:21:28.591Z,10.54
2022-12-23T07:25:13.809Z,10.57
2022-12-23T07:28:56.502Z,10.51
2022-12-23T07:32:39.231Z,10.50
2022-12-23T07:36:21.908Z,10.51
2022-12-23T07:40:08.517Z,10.59
2022-12-23T07:43:52.970Z,10.52
2022-12-23T07:47:35.717Z,10.50
2022-12-23T07:51:18.428Z,10.43
2022-12-23T07:55:01.335Z,10.40
2022-12-23T07:58:44.045Z,10.41
2022-12-23T08:02:28.216Z,10.42
2022-12-23T08:06:13.356Z,10.63
2022-12-23T08:09:56.080Z,10.60
2022-12-23T08:13:41.104Z,10.70
2022-12-23T08:17:29.058Z,10.74
2022-12-23T08:21:14.724Z,10.71
2022-12-23T08:24:57.493Z,10.74
2022-12-23T08:28:41.587Z,10.82
2022-12-23T08:32:28.311Z,10.78
2022-12-23T08:36:19.195Z,10.73
2022-12-23T08:40:05.685Z,10.75
2022-12-23T08:43:48.580Z,10.71
2022-12-23T08:47:32.664Z,10.88
2022-12-23T08:51:17.055Z,10.87
2022-12-23T08:54:59.957Z,10.95
2022-12-23T08:58:44.116Z,10.95
2022-12-23T09:02:26.958Z,11.03
2022-12-23T09:06:13.394Z,11.09
2022-12-23T09:09:56.137Z,10.99
2022-12-23T09:13:39.145Z,10.95
2022-12-23T09:17:21.809Z,10.97
2022-12-23T09:21:06.230Z,10.92
2022-12-23T09:24:50.357Z,10.96
2022-12-23T09:28:33.585Z,10.99
2022-12-23T09:32:16.344Z,11.09
2022-12-23T09:36:00.881Z,11.09
2022-12-23T09:39:43.622Z,11.15
2022-12-23T09:43:33.622Z,11.16
2022-12-23T09:47:18.574Z,11.18
2022-12-23T09:51:01.870Z,11.17
2022-12-23T09:54:48.712Z,11.26
2022-12-23T09:58:36.485Z,11.27
2022-12-23T10:02:26.316Z,11.35
2022-12-23T10:06:14.326Z,11.34
2022-12-23T10:09:57.830Z,11.32
2022-12-23T10:13:44.692Z,11.38
2022-12-23T10:17:30.569Z,11.41
2022-12-23T10:21:16.467Z,11.43
2022-12-23T10:25:00.277Z,11.49
2022-12-23T10:28:44.291Z,11.54
2022-12-23T10:32:32.578Z,11.54
2022-12-23T10:36:21.083Z,11.48
2022-12-23T10:40:11.358Z,11.48
2022-12-23T10:44:19.314Z,11.53
2022-12-23T10:48:14.216Z,11.47
2022-12-23T10:51:59.171Z,11.36
2022-12-23T10:55:41.975Z,11.36
2022-12-23T10:59:28.526Z,11.29
2022-12-23T11:03:18.113Z,11.17
2022-12-23T11:07:34.512Z,11.19
2022-12-23T11:11:05.041Z,11.27
2022-12-23T11:14:54.285Z,11.27
2022-12-23T11:18:41.872Z,11.33
2022-12-23T11:22:26.150Z,11.36
2022-12-23T11:26:13.327Z,11.38
2022-12-23T11:29:57.357Z,11.52
2022-12-23T11:33:42.333Z,11.50
2022-12-23T11:37:29.369Z,11.52
2022-12-23T11:41:12.020Z,11.62
2022-12-23T11:44:58.176Z,11.59
2022-12-23T11:48:40.831Z,11.59
2022-12-23T11:52:24.725Z,11.62
2022-12-23T11:56:09.545Z,11.69
2022-12-23T11:59:59.207Z,11.71
2022-12-23T12:03:47.637Z,11.70
2022-12-23T12:07:31.236Z,11.81
2022-12-23T12:11:16.087Z,11.81
2022-12-23T12:15:00.941Z,11.84
2022-12-23T12:18:46.253Z,11.91
2022-12-23T12:22:37.053Z,11.88
2022-12-23T12:26:24.314Z,11.84
2022-12-23T12:30:14.900Z,11.88
2022-12-23T12:34:02.141Z,11.83
2022-12-23T12:37:48.883Z,11.90
2022-12-23T12:41:35.939Z,11.76
2022-12-23T12:45:22.755Z,11.72
2022-12-23T12:49:15.096Z,11.75
2022-12-23T12:53:00.542Z,11.63
2022-12-23T12:56:47.631Z,11.56
2022-12-23T13:00:42.903Z,11.48
2022-12-23T13:04:49.415Z,11.35
2022-12-23T13:08:44.526Z,11.32
2022-12-23T13:12:38.874Z,11.17
2022-12-23T13:16:29.862Z,11.13
2022-12-23T13:20:17.409Z,11.06
2022-12-23T13:24:07.653Z,11.04
2022-12-23T13:27:55.717Z,11.00
2022-12-23T13:31:47.805Z,10.95
2022-12-23T13:35:38.702Z,10.90
2022-12-23T13:39:30.645Z,10.88
2022-12-23T13:43:16.353Z,10.93
2022-12-23T13:47:04.325Z,10.90
2022-12-23T13:50:51.173Z,10.82
2022-12-23T13:54:41.894Z,10.82
2022-12-23T13:58:26.794Z,10.83
2022-12-23T14:02:44.632Z,10.82
2022-12-23T14:06:43.897Z,10.78
2022-12-23T14:10:26.720Z,10.64
2022-12-23T14:14:19.735Z,10.59
2022-12-23T14:18:16.013Z,10.59
2022-12-23T14:22:08.564Z,10.61
2022-12-23T14:25:59.953Z,10.63
2022-12-23T14:29:51.547Z,10.63
2022-12-23T14:33:38.051Z,10.51
2022-12-23T14:37:36.479Z,10.44
2022-12-23T14:41:23.747Z,10.37
2022-12-23T14:45:29.804Z,10.39
2022-12-23T14:49:38.915Z,10.38
2022-12-23T14:53:27.541Z,10.44
2022-12-23T14:57:18.785Z,10.38
2022-12-23T15:01:04.262Z,10.31
2022-12-23T15:04:50.629Z,10.29
2022-12-23T15:08:35.247Z,10.29
2022-12-23T15:12:22.574Z,10.30
2022-12-23T15:16:05.503Z,10.43
2022-12-23T15:19:49.652Z,10.32
2022-12-23T15:23:33.306Z,10.28
2022-12-23T15:27:27.395Z,10.35
2022-12-23T15:31:23.268Z,10.29
2022-12-23T15:35:09.002Z,10.30
2022-12-23T15:38:51.732Z,10.34
2022-12-23T15:42:35.588Z,10.25
2022-12-23T15:46:25.015Z,10.34
2022-12-23T15:50:17.053Z,10.35
2022-12-23T15:54:02.494Z,10.33
2022-12-23T15:57:50.447Z,10.42
2022-12-23T16:01:38.108Z,10.40
2022-12-23T16:05:27.914Z,10.37
2022-12-23T16:09:26.593Z,10.42
2022-12-23T16:13:17.458Z,10.46
2022-12-23T16:17:01.602Z,10.45
2022-12-23T16:20:46.948Z,10.49
2022-12-23T16:24:31.829Z,10.47
2022-12-23T16:28:18.039Z,10.47
2022-12-23T16:32:02.464Z,10.42
2022-12-23T16:35:46.659Z,10.47
2022-12-23T16:39:29.493Z,10.53
2022-12-23T16:43:12.459Z,10.57
2022-12-23T16:46:55.126Z,10.57
2022-12-23T16:50:38.010Z,10.60
2022-12-23T16:54:22.198Z,10.60
2022-12-23T16:58:06.621Z,10.60
2022-12-23T17:01:50.535Z,10.62
2022-12-23T17:05:33.370Z,10.67
2022-12-23T17:09:16.083Z,10.75
2022-12-23T17:13:00.156Z,10.76
2022-12-23T17:16:42.904Z,10.82
2022-12-23T17:20:25.778Z,10.79
2022-12-23T17:24:11.898Z,10.84
2022-12-23T17:27:55.644Z,10.90
2022-12-23T17:31:39.937Z,10.84
2022-12-23T17:35:22.619Z,10.94
2022-12-23T17:39:05.561Z,10.93
2022-12-23T17:42:52.276Z,10.89
2022-12-23T17:46:35.967Z,10.93
2022-12-23T17:50:23.354Z,10.84
2022-12-23T17:54:06.491Z,10.83
2022-12-23T17:57:49.529Z,10.90
2022-12-23T18:01:32.893Z,10.86
2022-12-23T18:05:25.135Z,10.93
2022-12-23T18:09:07.899Z,10.94
2022-12-23T18:12:52.055Z,10.96
2022-12-23T18:16:34.848Z,10.90
2022-12-23T18:20:18.824Z,10.95
2022-12-23T18:24:02.982Z,11.04
2022-12-23T18:27:45.942Z,10.96
2022-12-23T18:31:29.006Z,10.93
2022-12-23T18:35:28.902Z,10.97
2022-12-23T18:39:12.928Z,10.98
2022-12-23T18:42:56.026Z,10.97
2022-12-23T18:46:38.773Z,10.99
2022-12-23T18:50:21.801Z,11.02
2022-12-23T18:54:04.534Z,11.07
2022-12-23T18:57:49.381Z,11.12
2022-12-23T19:01:32.202Z,11.12
2022-12-23T19:05:17.677Z,11.14
2022-12-23T19:09:00.349Z,11.19
2022-12-23T19:12:43.047Z,11.15
2022-12-23T19:16:27.161Z,11.19
2022-12-23T19:20:11.655Z,11.22
2022-12-23T19:23:54.318Z,11.13
2022-12-23T19:27:38.877Z,11.20
2022-12-23T19:31:23.094Z,11.26
2022-12-23T19:35:08.231Z,11.24
2022-12-23T19:38:51.180Z,11.22
2022-12-23T19:42:34.597Z,11.37
2022-12-23T19:46:17.794Z,11.38
2022-12-23T19:50:00.650Z,11.33
2022-12-23T19:53:46.111Z,11.29
2022-12-23T19:57:28.848Z,11.48
2022-12-23T20:01:14.266Z,11.48
2022-12-23T20:04:56.971Z,11.54
2022-12-23T20:08:40.540Z,11.48
2022-12-23T20:12:26.365Z,11.48
2022-12-23T20:16:09.678Z,11.51
2022-12-23T20:19:52.741Z,11.46
2022-12-23T20:23:35.523Z,11.54
2022-12-23T20:27:22.631Z,11.57
2022-12-23T20:31:16.850Z,11.54
2022-12-23T20:34:59.662Z,11.57
2022-12-23T20:38:44.427Z,11.59
2022-12-23T20:42:28.006Z,11.62
2022-12-23T20:46:14.337Z,11.50
2022-12-23T20:49:57.539Z,11.42
2022-12-23T20:53:40.648Z,11.36
2022-12-23T20:57:24.529Z,11.22
2022-12-23T21:01:12.754Z,11.22
2022-12-23T21:04:55.421Z,11.15
2022-12-23T21:08:38.999Z,11.15
2022-12-23T21:12:21.698Z,11.12
2022-12-23T21:16:06.205Z,11.15
2022-12-23T21:19:50.591Z,11.03
2022-12-23T21:23:33.491Z,10.77
2022-12-23T21:27:16.137Z,10.38
2022-12-23T21:30:58.806Z,9.89
2022-12-23T21:34:41.653Z,9.50
2022-12-23T21:38:26.101Z,9.24
2022-12-23T21:42:08.769Z,9.15
2022-12-23T21:45:56.916Z,9.12
2022-12-23T21:49:42.180Z,9.16
2022-12-23T21:53:26.242Z,9.07
2022-12-23T21:57:08.933Z,9.05
2022-12-23T22:00:51.631Z,9.18
2022-12-23T22:04:34.322Z,9.36
2022-12-23T22:08:17.060Z,9.47
2022-12-23T22:12:01.787Z,9.66
2022-12-23T22:15:44.741Z,9.96
2022-12-23T22:19:27.939Z,10.18
2022-12-23T22:23:10.774Z,10.24
2022-12-23T22:26:53.488Z,10.39
2022-12-23T22:30:37.571Z,10.45
2022-12-23T22:34:21.842Z,10.52
2022-12-23T22:38:04.536Z,10.55
2022-12-23T22:41:47.274Z,10.55
2022-12-23T22:45:29.945Z,10.56
2022-12-23T22:49:15.159Z,10.53
2022-12-23T22:52:57.821Z,10.51
2022-12-23T22:56:40.676Z,10.46
2022-12-23T23:00:26.320Z,10.32
2022-12-23T23:04:10.439Z,10.33
2022-12-23T23:07:57.364Z,10.40
2022-12-23T23:11:40.125Z,10.29
2022-12-23T23:15:22.903Z,10.23
2022-12-23T23:19:06.516Z,10.17
2022-12-23T23:22:49.221Z,10.15
2022-12-23T23:26:33.460Z,10.24
2022-12-23T23:30:16.311Z,10.27
2022-12-23T23:33:59.110Z,10.29
2022-12-23T23:37:42.150Z,10.33
2022-12-23T23:41:24.899Z,10.32
2022-12-23T23:45:09.895Z,10.32
2022-12-23T23:48:52.755Z,10.28
2022-12-23T23:52:35.459Z,10.28
2022-12-23T23:56:24.821Z,10.31
